createdAt,value
2018-08-31T00:00:28.260Z,0.00
2018-08-31T00:01:28.249Z,0.00
2018-08-31T00:02:28.236Z,0.00
2018-08-31T00:03:28.230Z,0.00
2018-08-31T00:04:28.219Z,0.00
2018-08-31T00:05:28.217Z,0.00
2018-08-31T00:06:28.200Z,0.00
2018-08-31T00:07:28.187Z,0.00
2018-08-31T00:08:28.179Z,0.00
2018-08-31T00:09:28.169Z,0.00
2018-08-31T00:10:28.158Z,0.00
2018-08-31T00:11:28.147Z,0.00
2018-08-31T00:12:28.131Z,0.00
2018-08-31T00:13:28.118Z,0.00
2018-08-31T00:14:28.108Z,0.00
2018-08-31T00:15:28.123Z,0.00
2018-08-31T00:16:28.115Z,0.00
2018-08-31T00:17:28.084Z,0.00
2018-08-31T00:18:28.075Z,0.00
2018-08-31T00:19:28.058Z,0.00
2018-08-31T00:20:28.045Z,0.00
2018-08-31T00:21:28.033Z,0.00
2018-08-31T00:22:28.031Z,0.00
2018-08-31T00:23:28.016Z,0.00
2018-08-31T00:24:28.003Z,0.00
2018-08-31T00:25:27.988Z,0.00
2018-08-31T00:26:27.979Z,0.00
2018-08-31T00:27:27.973Z,0.00
2018-08-31T00:28:27.972Z,0.00
2018-08-31T00:29:27.953Z,0.00
2018-08-31T00:30:27.946Z,0.00
2018-08-31T00:31:27.929Z,0.00
2018-08-31T00:32:27.948Z,0.00
2018-08-31T00:33:27.903Z,0.00
2018-08-31T00:34:27.891Z,0.00
2018-08-31T00:35:27.902Z,0.00
2018-08-31T00:36:27.875Z,0.00
2018-08-31T00:37:27.867Z,0.00
2018-08-31T00:38:27.853Z,0.00
2018-08-31T00:39:27.840Z,0.00
2018-08-31T00:40:27.831Z,0.00
2018-08-31T00:41:27.824Z,0.00
2018-08-31T00:42:27.819Z,0.00
2018-08-31T00:43:27.825Z,0.00
2018-08-31T00:44:27.786Z,0.00
2018-08-31T00:45:27.774Z,0.00
2018-08-31T00:46:27.762Z,0.00
2018-08-31T00:47:27.754Z,0.00
2018-08-31T00:48:27.747Z,0.00
2018-08-31T00:49:27.740Z,0.00
2018-08-31T00:50:27.727Z,0.00
2018-08-31T00:51:27.714Z,0.00
2018-08-31T00:52:27.700Z,0.00
2018-08-31T00:53:27.687Z,0.00
2018-08-31T00:54:27.712Z,0.00
2018-08-31T00:55:27.674Z,0.00
2018-08-31T00:56:27.656Z,0.00
2018-08-31T00:57:27.645Z,0.00
2018-08-31T00:58:27.634Z,0.00
2018-08-31T00:59:27.624Z,0.00
2018-08-31T01:00:27.626Z,0.00
2018-08-31T01:01:27.611Z,0.00
2018-08-31T01:02:27.597Z,0.00
2018-08-31T01:03:27.584Z,0.00
2018-08-31T01:04:27.573Z,0.00
2018-08-31T01:05:27.584Z,0.00
2018-08-31T01:06:27.548Z,0.00
2018-08-31T01:07:27.538Z,0.00
2018-08-31T01:08:27.530Z,0.00
2018-08-31T01:09:27.522Z,0.00
2018-08-31T01:10:27.510Z,0.00
2018-08-31T01:11:27.495Z,0.00
2018-08-31T01:12:27.490Z,0.00
2018-08-31T01:13:27.478Z,0.00
2018-08-31T01:14:27.516Z,0.00
2018-08-31T01:15:27.482Z,0.00
2018-08-31T01:16:27.441Z,0.00
2018-08-31T01:17:27.429Z,0.00
2018-08-31T01:18:27.417Z,0.00
2018-08-31T01:19:27.408Z,0.00
2018-08-31T01:20:27.399Z,0.00
2018-08-31T01:21:27.395Z,0.00
2018-08-31T01:22:27.380Z,0.00
2018-08-31T01:23:27.368Z,0.00
2018-08-31T01:24:27.354Z,0.00
2018-08-31T01:25:27.342Z,0.00
2018-08-31T01:26:27.365Z,0.00
2018-08-31T01:27:27.326Z,0.00
2018-08-31T01:28:27.310Z,0.00
2018-08-31T01:29:27.299Z,0.00
2018-08-31T01:30:27.290Z,0.00
2018-08-31T01:31:27.279Z,0.00
2018-08-31T01:32:27.273Z,0.00
2018-08-31T01:33:27.262Z,0.00
2018-08-31T01:34:27.251Z,0.00
2018-08-31T01:35:27.238Z,0.00
2018-08-31T01:36:27.224Z,0.00
2018-08-31T01:37:27.243Z,0.00
2018-08-31T01:38:27.204Z,0.00
2018-08-31T01:39:27.192Z,0.00
2018-08-31T01:40:27.184Z,0.00
2018-08-31T01:41:27.177Z,0.00
2018-08-31T01:42:27.169Z,0.00
2018-08-31T01:43:27.152Z,0.00
2018-08-31T01:44:27.141Z,0.00
2018-08-31T01:45:27.133Z,0.00
2018-08-31T01:46:27.117Z,0.00
2018-08-31T01:47:27.103Z,0.00
2018-08-31T01:48:27.102Z,0.00
2018-08-31T01:49:27.109Z,0.00
2018-08-31T01:50:27.075Z,0.00
2018-08-31T01:51:27.067Z,0.00
2018-08-31T01:52:27.052Z,0.00
2018-08-31T01:53:27.068Z,0.00
2018-08-31T01:54:27.029Z,0.00
2018-08-31T01:55:27.020Z,0.00
2018-08-31T01:56:27.015Z,0.00
2018-08-31T01:57:27.000Z,0.00
2018-08-31T01:58:26.986Z,0.00
2018-08-31T01:59:26.977Z,0.00
2018-08-31T02:00:26.969Z,0.00
2018-08-31T02:01:26.955Z,0.00
2018-08-31T02:02:26.952Z,0.00
2018-08-31T02:03:26.936Z,0.00
2018-08-31T02:04:26.950Z,0.00
2018-08-31T02:05:26.914Z,0.00
2018-08-31T02:06:26.899Z,0.00
2018-08-31T02:07:26.888Z,0.00
2018-08-31T02:08:26.881Z,0.00
2018-08-31T02:09:26.869Z,0.00
2018-08-31T02:10:26.860Z,0.00
2018-08-31T02:11:26.854Z,0.00
2018-08-31T02:12:26.832Z,0.00
2018-08-31T02:13:26.824Z,0.00
2018-08-31T02:14:26.817Z,0.00
2018-08-31T02:15:26.808Z,0.00
2018-08-31T02:16:26.788Z,0.00
2018-08-31T02:17:26.780Z,0.00
2018-08-31T02:18:26.774Z,0.00
2018-08-31T02:19:26.756Z,0.00
2018-08-31T02:20:26.778Z,0.00
2018-08-31T02:21:26.739Z,0.00
2018-08-31T02:22:26.730Z,0.00
2018-08-31T02:23:26.718Z,0.00
2018-08-31T02:24:26.705Z,0.00
2018-08-31T02:25:26.690Z,0.00
2018-08-31T02:26:26.682Z,0.00
2018-08-31T02:27:26.682Z,0.00
2018-08-31T02:28:26.662Z,0.00
2018-08-31T02:29:26.655Z,0.00
2018-08-31T02:30:26.636Z,0.00
2018-08-31T02:31:26.657Z,0.00
2018-08-31T02:32:26.625Z,0.00
2018-08-31T02:33:26.611Z,0.00
2018-08-31T02:34:26.601Z,0.00
2018-08-31T02:35:26.588Z,0.00
2018-08-31T02:36:26.581Z,0.00
2018-08-31T02:37:26.564Z,0.00
2018-08-31T02:38:26.551Z,0.00
2018-08-31T02:39:26.662Z,0.00
2018-08-31T02:40:26.534Z,0.00
2018-08-31T02:41:26.527Z,0.00
2018-08-31T02:42:26.542Z,0.00
2018-08-31T02:43:26.501Z,0.00
2018-08-31T02:44:26.490Z,0.00
2018-08-31T02:45:26.475Z,0.00
2018-08-31T02:46:26.477Z,0.00
2018-08-31T02:47:26.459Z,0.00
2018-08-31T02:48:26.446Z,0.00
2018-08-31T02:49:26.433Z,0.00
2018-08-31T02:50:26.420Z,0.00
2018-08-31T02:51:26.412Z,0.00
2018-08-31T02:52:26.412Z,0.00
2018-08-31T02:53:26.424Z,0.00
2018-08-31T02:54:26.384Z,0.00
2018-08-31T02:55:26.371Z,0.00
2018-08-31T02:56:26.362Z,0.00
2018-08-31T02:57:26.347Z,0.00
2018-08-31T02:58:26.342Z,0.00
2018-08-31T02:59:26.331Z,0.00
2018-08-31T03:00:26.322Z,0.00
2018-08-31T03:01:26.311Z,0.00
2018-08-31T03:02:26.292Z,0.00
2018-08-31T03:03:26.288Z,0.00
2018-08-31T03:04:26.305Z,0.00
2018-08-31T03:05:26.267Z,0.00
2018-08-31T03:06:26.259Z,0.00
2018-08-31T03:07:26.242Z,0.00
2018-08-31T03:08:26.230Z,0.00
2018-08-31T03:09:26.217Z,0.00
2018-08-31T03:10:26.209Z,0.00
2018-08-31T03:11:26.209Z,0.00
2018-08-31T03:12:26.189Z,0.00
2018-08-31T03:13:26.181Z,0.00
2018-08-31T03:14:26.178Z,0.00
2018-08-31T03:15:26.183Z,0.00
2018-08-31T03:16:26.144Z,0.00
2018-08-31T03:17:26.131Z,0.00
2018-08-31T03:18:26.130Z,0.00
2018-08-31T03:19:26.116Z,0.00
2018-08-31T03:20:26.100Z,0.00
2018-08-31T03:21:26.142Z,0.00
2018-08-31T03:22:26.077Z,0.00
2018-08-31T03:23:26.102Z,0.00
2018-08-31T03:24:26.063Z,0.00
2018-08-31T03:25:26.054Z,0.00
2018-08-31T03:26:26.069Z,0.00
2018-08-31T03:27:26.029Z,0.00
2018-08-31T03:28:26.014Z,0.00
2018-08-31T03:29:26.002Z,0.00
2018-08-31T03:30:25.993Z,0.00
2018-08-31T03:31:25.983Z,0.00
2018-08-31T03:32:26.076Z,0.00
2018-08-31T03:33:25.968Z,0.00
2018-08-31T03:34:25.947Z,0.00
2018-08-31T03:35:25.942Z,0.00
2018-08-31T03:36:25.930Z,0.00
2018-08-31T03:37:25.950Z,0.00
2018-08-31T03:38:25.915Z,0.00
2018-08-31T03:39:25.902Z,0.00
2018-08-31T03:40:25.888Z,0.00
2018-08-31T03:41:25.872Z,0.00
2018-08-31T03:42:25.862Z,0.00
2018-08-31T03:43:25.883Z,0.00
2018-08-31T03:44:25.845Z,0.00
2018-08-31T03:45:25.837Z,0.00
2018-08-31T03:46:25.826Z,0.00
2018-08-31T03:47:25.812Z,0.00
2018-08-31T03:48:25.826Z,0.00
2018-08-31T03:49:25.790Z,0.00
2018-08-31T03:50:25.782Z,0.00
2018-08-31T03:51:25.771Z,0.00
2018-08-31T03:52:25.757Z,0.00
2018-08-31T03:53:25.745Z,0.00
2018-08-31T03:54:25.734Z,0.00
2018-08-31T03:55:25.723Z,0.00
2018-08-31T03:56:25.717Z,0.00
2018-08-31T03:57:25.709Z,0.00
2018-08-31T03:58:25.696Z,0.00
2018-08-31T03:59:25.711Z,0.00
2018-08-31T04:00:25.672Z,0.00
2018-08-31T04:01:25.658Z,0.00
2018-08-31T04:02:25.645Z,0.00
2018-08-31T04:03:25.638Z,0.00
2018-08-31T04:04:25.651Z,0.00
2018-08-31T04:05:25.632Z,0.00
2018-08-31T04:06:25.603Z,0.00
2018-08-31T04:07:25.594Z,0.00
2018-08-31T04:08:25.586Z,0.00
2018-08-31T04:09:25.577Z,4.00
2018-08-31T04:10:25.594Z,4.00
2018-08-31T04:11:25.554Z,4.00
2018-08-31T04:12:25.539Z,0.00
2018-08-31T04:13:25.532Z,4.00
2018-08-31T04:14:25.517Z,4.00
2018-08-31T04:15:25.508Z,4.00
2018-08-31T04:16:25.504Z,8.00
2018-08-31T04:17:25.491Z,4.00
2018-08-31T04:18:25.480Z,8.00
2018-08-31T04:19:25.469Z,8.00
2018-08-31T04:20:25.455Z,8.00
2018-08-31T04:21:25.470Z,12.00
2018-08-31T04:22:25.441Z,16.00
2018-08-31T04:23:25.423Z,20.00
2018-08-31T04:24:25.410Z,24.00
2018-08-31T04:25:25.400Z,28.00
2018-08-31T04:26:25.399Z,32.00
2018-08-31T04:27:25.407Z,36.00
2018-08-31T04:28:25.385Z,40.00
2018-08-31T04:29:25.362Z,48.00
2018-08-31T04:30:25.356Z,56.00
2018-08-31T04:31:25.338Z,64.00
2018-08-31T04:32:25.350Z,72.00
2018-08-31T04:33:25.321Z,84.00
2018-08-31T04:34:25.308Z,88.00
2018-08-31T04:35:25.293Z,100.00
2018-08-31T04:36:25.288Z,112.00
2018-08-31T04:37:25.280Z,120.00
2018-08-31T04:38:25.263Z,132.00
2018-08-31T04:39:25.252Z,148.00
2018-08-31T04:40:25.241Z,164.00
2018-08-31T04:41:25.232Z,180.00
2018-08-31T04:42:25.221Z,196.00
2018-08-31T04:43:25.237Z,212.00
2018-08-31T04:44:25.194Z,232.00
2018-08-31T04:45:25.185Z,252.00
2018-08-31T04:46:25.171Z,268.00
2018-08-31T04:47:25.169Z,292.00
2018-08-31T04:48:25.153Z,312.00
2018-08-31T04:49:25.147Z,336.00
2018-08-31T04:50:25.167Z,356.00
2018-08-31T04:51:25.124Z,384.00
2018-08-31T04:52:25.108Z,408.00
2018-08-31T04:53:25.099Z,432.00
2018-08-31T04:54:25.147Z,460.00
2018-08-31T04:55:25.079Z,488.00
2018-08-31T04:56:25.065Z,520.00
2018-08-31T04:57:25.058Z,548.00
2018-08-31T04:58:25.046Z,584.00
2018-08-31T04:59:25.032Z,620.00
2018-08-31T05:00:25.026Z,656.00
2018-08-31T05:01:25.024Z,692.00
2018-08-31T05:02:25.005Z,732.00
2018-08-31T05:03:24.991Z,776.00
2018-08-31T05:04:24.979Z,816.00
2018-08-31T05:05:24.991Z,856.00
2018-08-31T05:06:24.986Z,904.00
2018-08-31T05:07:24.968Z,944.00
2018-08-31T05:08:24.957Z,988.00
2018-08-31T05:09:24.928Z,1028.00
2018-08-31T05:10:24.910Z,1072.00
2018-08-31T05:11:24.904Z,1116.00
2018-08-31T05:12:24.902Z,1160.00
2018-08-31T05:13:24.886Z,1204.00
2018-08-31T05:14:24.874Z,1248.00
2018-08-31T05:15:24.860Z,1288.00
2018-08-31T05:16:24.890Z,1336.00
2018-08-31T05:17:24.836Z,1380.00
2018-08-31T05:18:24.824Z,1432.00
2018-08-31T05:19:24.816Z,1476.00
2018-08-31T05:20:24.827Z,1524.00
2018-08-31T05:21:24.798Z,1576.00
2018-08-31T05:22:24.800Z,1628.00
2018-08-31T05:23:24.776Z,1680.00
2018-08-31T05:24:24.763Z,1736.00
2018-08-31T05:25:24.754Z,1788.00
2018-08-31T05:26:24.744Z,1848.00
2018-08-31T05:27:24.775Z,1896.00
2018-08-31T05:28:24.738Z,1956.00
2018-08-31T05:29:24.709Z,2008.00
2018-08-31T05:30:24.697Z,2068.00
2018-08-31T05:31:24.688Z,2124.00
2018-08-31T05:32:24.677Z,2184.00
2018-08-31T05:33:24.672Z,2236.00
2018-08-31T05:34:24.659Z,2292.00
2018-08-31T05:35:24.645Z,2348.00
2018-08-31T05:36:24.636Z,2412.00
2018-08-31T05:37:24.619Z,2472.00
2018-08-31T05:38:24.637Z,2536.00
2018-08-31T05:39:24.603Z,2600.00
2018-08-31T05:40:24.591Z,2660.00
2018-08-31T05:41:24.582Z,2724.00
2018-08-31T05:42:24.564Z,2792.00
2018-08-31T05:43:24.559Z,2856.00
2018-08-31T05:44:24.549Z,2920.00
2018-08-31T05:45:24.542Z,2984.00
2018-08-31T05:46:24.531Z,3048.00
2018-08-31T05:47:24.517Z,3108.00
2018-08-31T05:48:24.514Z,3168.00
2018-08-31T05:49:24.522Z,3228.00
2018-08-31T05:50:24.477Z,3292.00
2018-08-31T05:51:24.469Z,3352.00
2018-08-31T05:52:24.462Z,3412.00
2018-08-31T05:53:24.512Z,3464.00
2018-08-31T05:54:24.466Z,3516.00
2018-08-31T05:55:24.431Z,3564.00
2018-08-31T05:56:24.415Z,3608.00
2018-08-31T05:57:24.402Z,3644.00
2018-08-31T05:58:24.399Z,3684.00
2018-08-31T05:59:24.385Z,3724.00
2018-08-31T06:00:24.400Z,3764.00
2018-08-31T06:01:24.361Z,3808.00
2018-08-31T06:02:24.348Z,3852.00
2018-08-31T06:03:24.340Z,3900.00
2018-08-31T06:04:24.334Z,3956.00
2018-08-31T06:05:24.323Z,4008.00
2018-08-31T06:06:24.323Z,4080.00
2018-08-31T06:07:24.299Z,4144.00
2018-08-31T06:08:24.289Z,4228.00
2018-08-31T06:09:24.272Z,4316.00
2018-08-31T06:10:24.265Z,4408.00
2018-08-31T06:11:24.285Z,4504.00
2018-08-31T06:12:24.275Z,4612.00
2018-08-31T06:13:24.236Z,4716.00
2018-08-31T06:14:24.219Z,4820.00
2018-08-31T06:15:24.211Z,4928.00
2018-08-31T06:16:24.209Z,5032.00
2018-08-31T06:17:24.195Z,5148.00
2018-08-31T06:18:24.183Z,5256.00
2018-08-31T06:19:24.169Z,5368.00
2018-08-31T06:20:24.158Z,5476.00
2018-08-31T06:21:24.144Z,5584.00
2018-08-31T06:22:24.162Z,5688.00
2018-08-31T06:23:24.124Z,5792.00
2018-08-31T06:24:24.117Z,5900.00
2018-08-31T06:25:24.109Z,6000.00
2018-08-31T06:26:24.095Z,6108.00
2018-08-31T06:27:24.083Z,6212.00
2018-08-31T06:28:24.072Z,6316.00
2018-08-31T06:29:24.059Z,6412.00
2018-08-31T06:30:24.101Z,6516.00
2018-08-31T06:31:24.040Z,6628.00
2018-08-31T06:32:24.026Z,6740.00
2018-08-31T06:33:24.068Z,6848.00
2018-08-31T06:34:24.001Z,6960.00
2018-08-31T06:35:23.995Z,7068.00
2018-08-31T06:36:24.013Z,7188.00
2018-08-31T06:37:23.975Z,7312.00
2018-08-31T06:38:23.962Z,7448.00
2018-08-31T06:39:23.960Z,7584.00
2018-08-31T06:40:23.944Z,7720.00
2018-08-31T06:41:23.929Z,7860.00
2018-08-31T06:42:23.955Z,8000.00
2018-08-31T06:43:24.148Z,8160.00
2018-08-31T06:44:24.094Z,8328.00
2018-08-31T06:45:23.887Z,8496.00
2018-08-31T06:46:23.873Z,8668.00
2018-08-31T06:47:23.862Z,8856.00
2018-08-31T06:48:23.856Z,9056.00
2018-08-31T06:49:23.844Z,9264.00
2018-08-31T06:50:23.838Z,9472.00
2018-08-31T06:51:23.868Z,9692.00
2018-08-31T06:52:23.809Z,9900.00
2018-08-31T06:53:23.817Z,10112.00
2018-08-31T06:54:23.837Z,10308.00
2018-08-31T06:55:23.812Z,10488.00
2018-08-31T06:56:23.769Z,10652.00
2018-08-31T06:57:23.757Z,10812.00
2018-08-31T06:58:23.770Z,10940.00
2018-08-31T06:59:23.769Z,11052.00
2018-08-31T07:00:23.720Z,11172.00
2018-08-31T07:01:23.713Z,11264.00
2018-08-31T07:02:23.707Z,11376.00
2018-08-31T07:03:23.694Z,11508.00
2018-08-31T07:04:23.677Z,11632.00
2018-08-31T07:05:23.668Z,11716.00
2018-08-31T07:06:23.685Z,11764.00
2018-08-31T07:07:23.644Z,11820.00
2018-08-31T07:08:23.640Z,11912.00
2018-08-31T07:09:23.631Z,11988.00
2018-08-31T07:10:23.618Z,12040.00
2018-08-31T07:11:23.607Z,12112.00
2018-08-31T07:12:23.671Z,12156.00
2018-08-31T07:13:23.584Z,12276.00
2018-08-31T07:14:23.578Z,12364.00
2018-08-31T07:15:23.558Z,12504.00
2018-08-31T07:16:23.554Z,12628.00
2018-08-31T07:17:23.571Z,12732.00
2018-08-31T07:18:23.528Z,12840.00
2018-08-31T07:19:23.588Z,12940.00
2018-08-31T07:20:23.523Z,13024.00
2018-08-31T07:21:23.503Z,13088.00
2018-08-31T07:22:23.491Z,13176.00
2018-08-31T07:23:23.482Z,13252.00
2018-08-31T07:24:23.467Z,13328.00
2018-08-31T07:25:23.454Z,13388.00
2018-08-31T07:26:23.555Z,13416.00
2018-08-31T07:27:23.454Z,13448.00
2018-08-31T07:28:23.457Z,13532.00
2018-08-31T07:29:23.415Z,13580.00
2018-08-31T07:30:23.456Z,13656.00
2018-08-31T07:31:26.678Z,13708.00
2018-08-31T07:32:23.380Z,13736.00
2018-08-31T07:33:23.527Z,13764.00
2018-08-31T07:34:23.368Z,13784.00
2018-08-31T07:35:23.421Z,13804.00
2018-08-31T07:36:23.374Z,13836.00
2018-08-31T07:37:23.325Z,13848.00
2018-08-31T07:38:23.331Z,13860.00
2018-08-31T07:39:23.332Z,13928.00
2018-08-31T07:40:23.307Z,13976.00
2018-08-31T07:41:23.288Z,14060.00
2018-08-31T07:42:23.303Z,14028.00
2018-08-31T07:43:23.264Z,14016.00
2018-08-31T07:44:23.271Z,14028.00
2018-08-31T07:45:23.280Z,14084.00
2018-08-31T07:46:23.228Z,14056.00
2018-08-31T07:47:23.253Z,14024.00
2018-08-31T07:48:23.210Z,14116.00
2018-08-31T07:49:23.219Z,14208.00
2018-08-31T07:50:23.215Z,14236.00
2018-08-31T07:51:23.171Z,14240.00
2018-08-31T07:52:23.486Z,14388.00
2018-08-31T07:53:26.939Z,14488.00
2018-08-31T07:54:23.207Z,14556.00
2018-08-31T07:55:23.746Z,14644.00
2018-08-31T07:56:26.194Z,14720.00
2018-08-31T07:57:23.150Z,14728.00
2018-08-31T07:58:23.406Z,14760.00
2018-08-31T07:59:23.128Z,14824.00
2018-08-31T08:00:23.079Z,14852.00
2018-08-31T08:01:23.213Z,14948.00
2018-08-31T08:02:23.055Z,15116.00
2018-08-31T08:03:23.179Z,15260.00
2018-08-31T08:04:23.029Z,15324.00
2018-08-31T08:05:23.054Z,15420.00
2018-08-31T08:06:26.932Z,15568.00
2018-08-31T08:07:23.086Z,15648.00
2018-08-31T08:08:23.223Z,15696.00
2018-08-31T08:09:23.295Z,15628.00
2018-08-31T08:10:22.974Z,15516.00
2018-08-31T08:11:23.143Z,15372.00
2018-08-31T08:12:22.996Z,15308.00
2018-08-31T08:13:22.938Z,15292.00
2018-08-31T08:14:22.943Z,15308.00
2018-08-31T08:15:22.918Z,15372.00
2018-08-31T08:16:22.901Z,15388.00
2018-08-31T08:17:22.899Z,15460.00
2018-08-31T08:18:22.884Z,15548.00
2018-08-31T08:19:22.869Z,15684.00
2018-08-31T08:20:22.864Z,15776.00
2018-08-31T08:21:22.852Z,15832.00
2018-08-31T08:22:22.836Z,15880.00
2018-08-31T08:23:22.852Z,16096.00
2018-08-31T08:24:22.821Z,16192.00
2018-08-31T08:25:22.808Z,16256.00
2018-08-31T08:26:22.796Z,16352.00
2018-08-31T08:27:22.788Z,16608.00
2018-08-31T08:28:22.796Z,17184.00
2018-08-31T08:29:22.764Z,17632.00
2018-08-31T08:30:22.750Z,18240.00
2018-08-31T08:31:22.738Z,18368.00
2018-08-31T08:32:22.738Z,18592.00
2018-08-31T08:33:22.724Z,18912.00
2018-08-31T08:34:22.742Z,19104.00
2018-08-31T08:35:22.705Z,19200.00
2018-08-31T08:36:22.689Z,19488.00
2018-08-31T08:37:22.677Z,19680.00
2018-08-31T08:38:22.675Z,19840.00
2018-08-31T08:39:22.664Z,19776.00
2018-08-31T08:40:22.644Z,19648.00
2018-08-31T08:41:22.632Z,19840.00
2018-08-31T08:42:22.656Z,19776.00
2018-08-31T08:43:22.611Z,19584.00
2018-08-31T08:44:22.621Z,19296.00
2018-08-31T08:45:22.620Z,19200.00
2018-08-31T08:46:22.584Z,18880.00
2018-08-31T08:47:22.573Z,18400.00
2018-08-31T08:48:22.654Z,17632.00
2018-08-31T08:49:22.546Z,17472.00
2018-08-31T08:50:22.538Z,17728.00
2018-08-31T08:51:22.525Z,17152.00
2018-08-31T08:52:22.519Z,16160.00
2018-08-31T08:53:22.508Z,15372.00
2018-08-31T08:54:22.497Z,14828.00
2018-08-31T08:55:22.480Z,14448.00
2018-08-31T08:56:22.555Z,13976.00
2018-08-31T08:57:22.463Z,13288.00
2018-08-31T08:58:22.644Z,12868.00
2018-08-31T08:59:22.460Z,12720.00
2018-08-31T09:00:22.426Z,12308.00
2018-08-31T09:01:22.499Z,11892.00
2018-08-31T09:02:22.439Z,11444.00
2018-08-31T09:03:22.395Z,11196.00
2018-08-31T09:04:22.389Z,10940.00
2018-08-31T09:05:22.376Z,10736.00
2018-08-31T09:06:22.370Z,10712.00
2018-08-31T09:07:22.389Z,10496.00
2018-08-31T09:08:22.343Z,10456.00
2018-08-31T09:09:22.332Z,10292.00
2018-08-31T09:10:22.324Z,10000.00
2018-08-31T09:11:22.314Z,9252.00
2018-08-31T09:12:22.373Z,8008.00
2018-08-31T09:13:22.290Z,6908.00
2018-08-31T09:14:22.278Z,6088.00
2018-08-31T09:15:22.264Z,5788.00
2018-08-31T09:16:22.260Z,5588.00
2018-08-31T09:17:22.254Z,5384.00
2018-08-31T09:18:22.328Z,5328.00
2018-08-31T09:19:22.228Z,5460.00
2018-08-31T09:20:22.322Z,5620.00
2018-08-31T09:21:22.203Z,5740.00
2018-08-31T09:22:22.192Z,5720.00
2018-08-31T09:23:22.180Z,5864.00
2018-08-31T09:24:22.175Z,6208.00
2018-08-31T09:25:22.165Z,6484.00
2018-08-31T09:26:22.149Z,6664.00
2018-08-31T09:27:22.137Z,6796.00
2018-08-31T09:28:22.131Z,6820.00
2018-08-31T09:29:22.146Z,6964.00
2018-08-31T09:30:22.107Z,7172.00
2018-08-31T09:31:22.098Z,7536.00
2018-08-31T09:32:22.309Z,7888.00
2018-08-31T09:33:22.083Z,7736.00
2018-08-31T09:34:22.179Z,7320.00
2018-08-31T09:35:22.049Z,7296.00
2018-08-31T09:36:22.042Z,7244.00
2018-08-31T09:37:22.029Z,7152.00
2018-08-31T09:38:22.080Z,7380.00
2018-08-31T09:39:22.014Z,7972.00
2018-08-31T09:40:22.028Z,8580.00
2018-08-31T09:41:22.009Z,9300.00
2018-08-31T09:42:21.979Z,10004.00
2018-08-31T09:43:21.980Z,10512.00
2018-08-31T09:44:21.947Z,10740.00
2018-08-31T09:45:21.981Z,10684.00
2018-08-31T09:46:21.944Z,10568.00
2018-08-31T09:47:21.941Z,10496.00
2018-08-31T09:48:21.918Z,10572.00
2018-08-31T09:49:21.898Z,10688.00
2018-08-31T09:50:21.887Z,10900.00
2018-08-31T09:51:21.882Z,11248.00
2018-08-31T09:52:21.860Z,11696.00
2018-08-31T09:53:21.853Z,12224.00
2018-08-31T09:54:21.845Z,12700.00
2018-08-31T09:55:21.828Z,13236.00
2018-08-31T09:56:21.844Z,14104.00
2018-08-31T09:57:21.890Z,15084.00
2018-08-31T09:58:21.802Z,16036.00
2018-08-31T09:59:21.784Z,16864.00
2018-08-31T10:00:21.785Z,16736.00
2018-08-31T10:01:21.768Z,16448.00
2018-08-31T10:02:21.773Z,16736.00
2018-08-31T10:03:21.751Z,17152.00
2018-08-31T10:04:21.731Z,17504.00
2018-08-31T10:05:21.745Z,17760.00
2018-08-31T10:06:21.712Z,17376.00
2018-08-31T10:07:21.698Z,17472.00
2018-08-31T10:08:21.695Z,17504.00
2018-08-31T10:09:21.689Z,17568.00
2018-08-31T10:10:21.672Z,17728.00
2018-08-31T10:11:21.665Z,17856.00
2018-08-31T10:12:21.646Z,17632.00
2018-08-31T10:13:21.656Z,17408.00
2018-08-31T10:14:21.631Z,17376.00
2018-08-31T10:15:21.620Z,17440.00
2018-08-31T10:16:21.612Z,17728.00
2018-08-31T10:17:21.595Z,18048.00
2018-08-31T10:18:21.583Z,18400.00
2018-08-31T10:19:21.573Z,18784.00
2018-08-31T10:20:21.566Z,19104.00
2018-08-31T10:21:21.556Z,19520.00
2018-08-31T10:22:21.543Z,19968.00
2018-08-31T10:23:21.561Z,20032.00
2018-08-31T10:24:21.517Z,20096.00
2018-08-31T10:25:21.512Z,20352.00
2018-08-31T10:26:21.532Z,20576.00
2018-08-31T10:27:21.541Z,20544.00
2018-08-31T10:28:21.482Z,20192.00
2018-08-31T10:29:21.491Z,19520.00
2018-08-31T10:30:21.471Z,18752.00
2018-08-31T10:31:21.442Z,18048.00
2018-08-31T10:32:21.466Z,17888.00
2018-08-31T10:33:21.426Z,18464.00
2018-08-31T10:34:21.418Z,19552.00
2018-08-31T10:35:21.429Z,21088.00
2018-08-31T10:36:21.387Z,22272.00
2018-08-31T10:37:21.381Z,22912.00
2018-08-31T10:38:21.368Z,23520.00
2018-08-31T10:39:21.355Z,23520.00
2018-08-31T10:40:21.465Z,22688.00
2018-08-31T10:41:21.338Z,20672.00
2018-08-31T10:42:21.353Z,19296.00
2018-08-31T10:43:21.344Z,18432.00
2018-08-31T10:44:21.331Z,18048.00
2018-08-31T10:45:21.294Z,17600.00
2018-08-31T10:46:21.293Z,17248.00
2018-08-31T10:47:21.302Z,17536.00
2018-08-31T10:48:21.269Z,18080.00
2018-08-31T10:49:21.252Z,17920.00
2018-08-31T10:50:21.244Z,16160.00
2018-08-31T10:51:21.228Z,13896.00
2018-08-31T10:52:21.225Z,12504.00
2018-08-31T10:53:21.234Z,11544.00
2018-08-31T10:54:21.203Z,10892.00
2018-08-31T10:55:21.194Z,10160.00
2018-08-31T10:56:21.178Z,9264.00
2018-08-31T10:57:21.164Z,8556.00
2018-08-31T10:58:21.155Z,7996.00
2018-08-31T10:59:21.147Z,7612.00
2018-08-31T11:00:21.140Z,7292.00
2018-08-31T11:01:21.128Z,7000.00
2018-08-31T11:02:21.112Z,6784.00
2018-08-31T11:03:21.108Z,6588.00
2018-08-31T11:04:21.094Z,6544.00
2018-08-31T11:05:21.099Z,6588.00
2018-08-31T11:06:21.075Z,6696.00
2018-08-31T11:07:21.062Z,6748.00
2018-08-31T11:08:21.053Z,6884.00
2018-08-31T11:09:21.036Z,6944.00
2018-08-31T11:10:21.027Z,6968.00
2018-08-31T11:11:21.019Z,7056.00
2018-08-31T11:12:21.008Z,7240.00
2018-08-31T11:13:21.022Z,7480.00
2018-08-31T11:14:20.988Z,7688.00
2018-08-31T11:15:21.081Z,7952.00
2018-08-31T11:16:20.964Z,8188.00
2018-08-31T11:17:20.949Z,8512.00
2018-08-31T11:18:20.950Z,8920.00
2018-08-31T11:19:20.967Z,9476.00
2018-08-31T11:20:20.926Z,9968.00
2018-08-31T11:21:20.921Z,10340.00
2018-08-31T11:22:20.898Z,10628.00
2018-08-31T11:23:20.887Z,10980.00
2018-08-31T11:24:20.882Z,11412.00
2018-08-31T11:25:20.876Z,11836.00
2018-08-31T11:26:20.884Z,12444.00
2018-08-31T11:27:20.846Z,12960.00
2018-08-31T11:28:20.837Z,13308.00
2018-08-31T11:29:20.823Z,13412.00
2018-08-31T11:30:21.747Z,13448.00
2018-08-31T11:31:20.801Z,13516.00
2018-08-31T11:32:20.797Z,13752.00
2018-08-31T11:33:20.784Z,14104.00
2018-08-31T11:34:20.773Z,14624.00
2018-08-31T11:35:20.759Z,15176.00
2018-08-31T11:36:20.753Z,15800.00
2018-08-31T11:37:20.744Z,16384.00
2018-08-31T11:38:20.732Z,17120.00
2018-08-31T11:39:20.721Z,17888.00
2018-08-31T11:40:20.709Z,18848.00
2018-08-31T11:41:20.696Z,20256.00
2018-08-31T11:42:20.684Z,21856.00
2018-08-31T11:43:20.743Z,23328.00
2018-08-31T11:44:20.740Z,24160.00
2018-08-31T11:45:20.661Z,24608.00
2018-08-31T11:46:20.684Z,26496.00
2018-08-31T11:47:20.654Z,34112.00
2018-08-31T11:48:20.620Z,70880.00
2018-08-31T11:49:20.607Z,71968.00
2018-08-31T11:50:20.605Z,82080.00
2018-08-31T11:51:20.591Z,83232.00
2018-08-31T11:52:20.579Z,86016.00
2018-08-31T11:53:20.564Z,87840.00
2018-08-31T11:54:20.554Z,87872.00
2018-08-31T11:55:20.644Z,90688.00
2018-08-31T11:56:20.545Z,89920.00
2018-08-31T11:57:20.529Z,89728.00
2018-08-31T11:58:20.522Z,90560.00
2018-08-31T11:59:20.510Z,90528.00
2018-08-31T12:00:20.497Z,88288.00
2018-08-31T12:01:20.487Z,82624.00
2018-08-31T12:02:20.475Z,62752.00
2018-08-31T12:03:20.472Z,72928.00
2018-08-31T12:04:20.460Z,76128.00
2018-08-31T12:05:20.449Z,48544.00
2018-08-31T12:06:20.432Z,31040.00
2018-08-31T12:07:20.429Z,25952.00
2018-08-31T12:08:20.429Z,23872.00
2018-08-31T12:09:20.410Z,21088.00
2018-08-31T12:10:20.423Z,19488.00
2018-08-31T12:11:20.385Z,16096.00
2018-08-31T12:12:20.373Z,15584.00
2018-08-31T12:13:20.361Z,15776.00
2018-08-31T12:14:20.351Z,16000.00
2018-08-31T12:15:20.340Z,16576.00
2018-08-31T12:16:20.334Z,17312.00
2018-08-31T12:17:20.324Z,17856.00
2018-08-31T12:18:20.313Z,18272.00
2018-08-31T12:19:20.327Z,18304.00
2018-08-31T12:20:20.288Z,18240.00
2018-08-31T12:21:20.278Z,18112.00
2018-08-31T12:22:20.271Z,17984.00
2018-08-31T12:23:20.265Z,18208.00